sensor_id;sensor_type;location;lat;lon;timestamp;P1;durP1;ratioP1;P2;durP2;ratioP2
39676;SDS011;27789;50.840;4.386;2022-11-21T00:03:42;11.80;;;3.85;;
39676;SDS011;27789;50.840;4.386;2022-11-21T00:06:07;19.55;;;3.78;;
39676;SDS011;27789;50.840;4.386;2022-11-21T00:08:33;14.10;;;4.88;;
39676;SDS011;27789;50.840;4.386;2022-11-21T00:10:59;19.77;;;4.60;;
39676;SDS011;27789;50.840;4.386;2022-11-21T00:13:25;10.20;;;4.90;;
39676;SDS011;27789;50.840;4.386;2022-11-21T00:15:50;13.10;;;4.15;;
39676;SDS011;27789;50.840;4.386;2022-11-21T00:18:16;19.05;;;4.65;;
39676;SDS011;27789;50.840;4.386;2022-11-21T00:20:42;10.18;;;3.67;;
39676;SDS011;27789;50.840;4.386;2022-11-21T00:23:08;15.52;;;4.40;;
39676;SDS011;27789;50.840;4.386;2022-11-21T00:25:34;15.60;;;4.38;;
39676;SDS011;27789;50.840;4.386;2022-11-21T00:28:01;15.10;;;4.03;;
39676;SDS011;27789;50.840;4.386;2022-11-21T00:30:26;13.25;;;4.68;;
39676;SDS011;27789;50.840;4.386;2022-11-21T00:32:52;19.35;;;4.43;;
39676;SDS011;27789;50.840;4.386;2022-11-21T00:35:18;13.48;;;4.30;;
39676;SDS011;27789;50.840;4.386;2022-11-21T00:37:44;15.60;;;4.38;;
39676;SDS011;27789;50.840;4.386;2022-11-21T00:40:11;15.32;;;3.92;;
39676;SDS011;27789;50.840;4.386;2022-11-21T00:42:37;20.30;;;4.63;;
39676;SDS011;27789;50.840;4.386;2022-11-21T00:45:02;16.20;;;4.22;;
39676;SDS011;27789;50.840;4.386;2022-11-21T00:47:28;9.15;;;4.00;;
39676;SDS011;27789;50.840;4.386;2022-11-21T00:49:54;11.70;;;4.15;;
39676;SDS011;27789;50.840;4.386;2022-11-21T00:52:19;11.93;;;4.32;;
39676;SDS011;27789;50.840;4.386;2022-11-21T00:54:45;17.73;;;5.00;;
39676;SDS011;27789;50.840;4.386;2022-11-21T00:57:10;13.02;;;3.97;;
39676;SDS011;27789;50.840;4.386;2022-11-21T00:59:36;15.43;;;4.50;;
39676;SDS011;27789;50.840;4.386;2022-11-21T01:02:02;14.60;;;4.45;;
39676;SDS011;27789;50.840;4.386;2022-11-21T01:04:29;8.38;;;3.85;;
39676;SDS011;27789;50.840;4.386;2022-11-21T01:06:56;15.57;;;4.78;;
39676;SDS011;27789;50.840;4.386;2022-11-21T01:09:22;17.00;;;3.92;;
39676;SDS011;27789;50.840;4.386;2022-11-21T01:11:48;13.10;;;3.80;;
39676;SDS011;27789;50.840;4.386;2022-11-21T01:14:14;13.75;;;4.03;;
39676;SDS011;27789;50.840;4.386;2022-11-21T01:16:39;17.65;;;4.82;;
39676;SDS011;27789;50.840;4.386;2022-11-21T01:19:05;10.27;;;3.60;;
39676;SDS011;27789;50.840;4.386;2022-11-21T01:21:30;12.45;;;3.75;;
39676;SDS011;27789;50.840;4.386;2022-11-21T01:23:59;11.10;;;3.55;;
39676;SDS011;27789;50.840;4.386;2022-11-21T01:26:27;10.57;;;3.08;;
39676;SDS011;27789;50.840;4.386;2022-11-21T01:28:54;6.57;;;2.95;;
39676;SDS011;27789;50.840;4.386;2022-11-21T01:31:22;12.35;;;4.55;;
39676;SDS011;27789;50.840;4.386;2022-11-21T01:33:49;7.95;;;4.03;;
39676;SDS011;27789;50.840;4.386;2022-11-21T01:36:16;15.13;;;4.25;;
39676;SDS011;27789;50.840;4.386;2022-11-21T01:38:44;20.42;;;4.20;;
39676;SDS011;27789;50.840;4.386;2022-11-21T01:41:13;8.77;;;3.63;;
39676;SDS011;27789;50.840;4.386;2022-11-21T01:44:00;13.25;;;3.90;;
39676;SDS011;27789;50.840;4.386;2022-11-21T01:46:40;15.30;;;4.15;;
39676;SDS011;27789;50.840;4.386;2022-11-21T01:49:10;11.35;;;4.15;;
39676;SDS011;27789;50.840;4.386;2022-11-21T01:51:41;17.17;;;4.18;;
39676;SDS011;27789;50.840;4.386;2022-11-21T01:54:12;7.25;;;3.08;;
39676;SDS011;27789;50.840;4.386;2022-11-21T02:02:28;11.15;;;4.00;;
39676;SDS011;27789;50.840;4.386;2022-11-21T02:04:59;12.82;;;5.85;;
39676;SDS011;27789;50.840;4.386;2022-11-21T02:07:25;20.60;;;4.40;;
39676;SDS011;27789;50.840;4.386;2022-11-21T02:09:54;10.88;;;3.67;;
39676;SDS011;27789;50.840;4.386;2022-11-21T02:12:25;15.60;;;4.20;;
39676;SDS011;27789;50.840;4.386;2022-11-21T02:15:03;14.38;;;3.53;;
39676;SDS011;27789;50.840;4.386;2022-11-21T02:17:29;9.52;;;3.45;;
39676;SDS011;27789;50.840;4.386;2022-11-21T02:19:59;11.50;;;3.47;;
39676;SDS011;27789;50.840;4.386;2022-11-21T02:25:00;10.13;;;3.58;;
39676;SDS011;27789;50.840;4.386;2022-11-21T02:27:34;15.75;;;4.93;;
39676;SDS011;27789;50.840;4.386;2022-11-21T02:30:00;14.40;;;3.50;;
39676;SDS011;27789;50.840;4.386;2022-11-21T02:35:05;8.00;;;2.95;;
39676;SDS011;27789;50.840;4.386;2022-11-21T02:37:31;14.48;;;3.33;;
39676;SDS011;27789;50.840;4.386;2022-11-21T02:40:00;11.10;;;3.17;;
39676;SDS011;27789;50.840;4.386;2022-11-21T02:45:18;8.02;;;2.72;;
39676;SDS011;27789;50.840;4.386;2022-11-21T02:47:49;7.18;;;3.05;;
39676;SDS011;27789;50.840;4.386;2022-11-21T02:50:18;9.68;;;3.30;;
39676;SDS011;27789;50.840;4.386;2022-11-21T02:52:44;11.68;;;2.72;;
39676;SDS011;27789;50.840;4.386;2022-11-21T02:55:10;11.23;;;3.13;;
39676;SDS011;27789;50.840;4.386;2022-11-21T02:57:37;13.15;;;4.28;;
39676;SDS011;27789;50.840;4.386;2022-11-21T03:00:04;8.57;;;2.67;;
39676;SDS011;27789;50.840;4.386;2022-11-21T03:02:30;6.68;;;3.00;;
39676;SDS011;27789;50.840;4.386;2022-11-21T03:04:55;9.73;;;2.38;;
39676;SDS011;27789;50.840;4.386;2022-11-21T03:07:21;7.10;;;2.33;;
39676;SDS011;27789;50.840;4.386;2022-11-21T03:09:47;10.48;;;2.65;;
39676;SDS011;27789;50.840;4.386;2022-11-21T03:12:12;14.65;;;3.33;;
39676;SDS011;27789;50.840;4.386;2022-11-21T03:14:38;11.52;;;3.20;;
39676;SDS011;27789;50.840;4.386;2022-11-21T03:17:04;9.05;;;3.13;;
39676;SDS011;27789;50.840;4.386;2022-11-21T03:19:30;5.43;;;3.10;;
39676;SDS011;27789;50.840;4.386;2022-11-21T03:21:55;10.85;;;2.75;;
39676;SDS011;27789;50.840;4.386;2022-11-21T03:24:21;11.75;;;2.70;;
39676;SDS011;27789;50.840;4.386;2022-11-21T03:26:46;11.93;;;2.65;;
39676;SDS011;27789;50.840;4.386;2022-11-21T03:29:12;13.27;;;4.40;;
39676;SDS011;27789;50.840;4.386;2022-11-21T03:31:38;12.35;;;3.00;;
39676;SDS011;27789;50.840;4.386;2022-11-21T03:34:04;20.67;;;3.47;;
39676;SDS011;27789;50.840;4.386;2022-11-21T03:36:30;7.88;;;3.15;;
39676;SDS011;27789;50.840;4.386;2022-11-21T03:38:55;8.90;;;2.70;;
39676;SDS011;27789;50.840;4.386;2022-11-21T03:41:22;9.70;;;4.05;;
39676;SDS011;27789;50.840;4.386;2022-11-21T03:43:55;8.40;;;2.55;;
39676;SDS011;27789;50.840;4.386;2022-11-21T03:46:21;12.27;;;3.25;;
39676;SDS011;27789;50.840;4.386;2022-11-21T03:48:47;10.73;;;3.22;;
39676;SDS011;27789;50.840;4.386;2022-11-21T03:51:13;15.65;;;3.33;;
39676;SDS011;27789;50.840;4.386;2022-11-21T03:53:38;23.15;;;3.72;;
39676;SDS011;27789;50.840;4.386;2022-11-21T03:56:04;8.52;;;2.97;;
39676;SDS011;27789;50.840;4.386;2022-11-21T03:58:30;11.20;;;3.28;;
39676;SDS011;27789;50.840;4.386;2022-11-21T04:00:55;8.02;;;3.10;;
39676;SDS011;27789;50.840;4.386;2022-11-21T04:03:21;9.10;;;3.90;;
39676;SDS011;27789;50.840;4.386;2022-11-21T04:05:46;11.73;;;3.42;;
39676;SDS011;27789;50.840;4.386;2022-11-21T04:08:12;14.27;;;4.13;;
39676;SDS011;27789;50.840;4.386;2022-11-21T04:10:38;8.30;;;3.13;;
39676;SDS011;27789;50.840;4.386;2022-11-21T04:13:03;10.65;;;3.65;;
39676;SDS011;27789;50.840;4.386;2022-11-21T04:15:29;10.70;;;3.38;;
39676;SDS011;27789;50.840;4.386;2022-11-21T04:17:54;6.28;;;3.50;;
39676;SDS011;27789;50.840;4.386;2022-11-21T04:20:20;16.77;;;4.03;;
39676;SDS011;27789;50.840;4.386;2022-11-21T04:22:45;14.25;;;4.22;;
39676;SDS011;27789;50.840;4.386;2022-11-21T04:25:11;10.98;;;3.90;;
39676;SDS011;27789;50.840;4.386;2022-11-21T04:27:37;10.40;;;3.33;;
39676;SDS011;27789;50.840;4.386;2022-11-21T04:30:04;14.00;;;4.38;;
39676;SDS011;27789;50.840;4.386;2022-11-21T04:32:30;16.73;;;3.42;;
39676;SDS011;27789;50.840;4.386;2022-11-21T04:34:55;11.88;;;4.15;;
39676;SDS011;27789;50.840;4.386;2022-11-21T04:37:21;11.35;;;4.18;;
39676;SDS011;27789;50.840;4.386;2022-11-21T04:39:46;8.85;;;3.70;;
39676;SDS011;27789;50.840;4.386;2022-11-21T04:42:12;13.35;;;3.90;;
39676;SDS011;27789;50.840;4.386;2022-11-21T04:44:38;10.50;;;3.28;;
39676;SDS011;27789;50.840;4.386;2022-11-21T04:47:03;23.77;;;4.05;;
39676;SDS011;27789;50.840;4.386;2022-11-21T04:49:29;11.10;;;3.88;;
39676;SDS011;27789;50.840;4.386;2022-11-21T04:51:54;9.88;;;2.97;;
39676;SDS011;27789;50.840;4.386;2022-11-21T04:54:20;12.25;;;3.63;;
39676;SDS011;27789;50.840;4.386;2022-11-21T04:56:45;11.80;;;3.15;;
39676;SDS011;27789;50.840;4.386;2022-11-21T04:59:11;11.48;;;3.35;;
39676;SDS011;27789;50.840;4.386;2022-11-21T05:01:37;10.90;;;3.15;;
39676;SDS011;27789;50.840;4.386;2022-11-21T05:04:03;11.27;;;3.28;;
39676;SDS011;27789;50.840;4.386;2022-11-21T05:06:28;4.72;;;3.33;;
39676;SDS011;27789;50.840;4.386;2022-11-21T05:08:54;10.27;;;3.22;;
39676;SDS011;27789;50.840;4.386;2022-11-21T05:11:20;8.57;;;3.20;;
39676;SDS011;27789;50.840;4.386;2022-11-21T05:13:56;13.23;;;3.63;;
39676;SDS011;27789;50.840;4.386;2022-11-21T05:16:22;8.05;;;2.67;;
39676;SDS011;27789;50.840;4.386;2022-11-21T05:18:47;10.98;;;3.42;;
39676;SDS011;27789;50.840;4.386;2022-11-21T05:21:13;11.73;;;2.97;;
39676;SDS011;27789;50.840;4.386;2022-11-21T05:23:38;10.60;;;3.72;;
39676;SDS011;27789;50.840;4.386;2022-11-21T05:26:04;11.40;;;2.83;;
39676;SDS011;27789;50.840;4.386;2022-11-21T05:28:30;6.38;;;2.47;;
39676;SDS011;27789;50.840;4.386;2022-11-21T05:30:55;9.70;;;3.70;;
39676;SDS011;27789;50.840;4.386;2022-11-21T05:33:21;9.70;;;2.67;;
39676;SDS011;27789;50.840;4.386;2022-11-21T05:35:46;12.15;;;3.03;;
39676;SDS011;27789;50.840;4.386;2022-11-21T05:38:12;17.88;;;3.83;;
39676;SDS011;27789;50.840;4.386;2022-11-21T05:40:38;11.57;;;3.28;;
39676;SDS011;27789;50.840;4.386;2022-11-21T05:43:03;10.32;;;3.22;;
39676;SDS011;27789;50.840;4.386;2022-11-21T05:45:40;10.55;;;3.70;;
39676;SDS011;27789;50.840;4.386;2022-11-21T05:48:05;11.07;;;3.03;;
39676;SDS011;27789;50.840;4.386;2022-11-21T05:50:32;7.85;;;2.53;;
39676;SDS011;27789;50.840;4.386;2022-11-21T05:53:02;10.52;;;3.15;;
39676;SDS011;27789;50.840;4.386;2022-11-21T05:55:28;10.90;;;3.83;;
39676;SDS011;27789;50.840;4.386;2022-11-21T05:57:56;6.75;;;2.72;;
39676;SDS011;27789;50.840;4.386;2022-11-21T06:00:23;13.07;;;2.95;;
39676;SDS011;27789;50.840;4.386;2022-11-21T06:02:49;13.20;;;2.88;;
39676;SDS011;27789;50.840;4.386;2022-11-21T06:05:25;11.23;;;3.10;;
39676;SDS011;27789;50.840;4.386;2022-11-21T06:07:51;10.38;;;3.75;;
39676;SDS011;27789;50.840;4.386;2022-11-21T06:10:16;9.05;;;2.80;;
39676;SDS011;27789;50.840;4.386;2022-11-21T06:12:42;8.95;;;2.83;;
39676;SDS011;27789;50.840;4.386;2022-11-21T06:15:08;10.13;;;3.05;;
39676;SDS011;27789;50.840;4.386;2022-11-21T06:17:34;6.88;;;2.95;;
39676;SDS011;27789;50.840;4.386;2022-11-21T06:19:59;8.35;;;3.13;;
39676;SDS011;27789;50.840;4.386;2022-11-21T06:22:25;11.65;;;3.08;;
39676;SDS011;27789;50.840;4.386;2022-11-21T06:24:50;8.70;;;2.70;;
39676;SDS011;27789;50.840;4.386;2022-11-21T06:27:16;10.50;;;3.03;;
39676;SDS011;27789;50.840;4.386;2022-11-21T06:29:41;12.45;;;3.53;;
39676;SDS011;27789;50.840;4.386;2022-11-21T06:32:07;8.50;;;3.20;;
39676;SDS011;27789;50.840;4.386;2022-11-21T06:34:33;13.88;;;3.13;;
39676;SDS011;27789;50.840;4.386;2022-11-21T06:36:58;11.45;;;3.00;;
39676;SDS011;27789;50.840;4.386;2022-11-21T06:39:24;12.02;;;3.25;;
39676;SDS011;27789;50.840;4.386;2022-11-21T06:41:49;12.38;;;3.25;;
39676;SDS011;27789;50.840;4.386;2022-11-21T06:44:18;13.98;;;3.13;;
39676;SDS011;27789;50.840;4.386;2022-11-21T06:46:44;11.25;;;2.72;;
39676;SDS011;27789;50.840;4.386;2022-11-21T06:49:10;14.57;;;2.70;;
39676;SDS011;27789;50.840;4.386;2022-11-21T06:51:35;7.80;;;2.80;;
39676;SDS011;27789;50.840;4.386;2022-11-21T06:54:01;14.95;;;3.08;;
39676;SDS011;27789;50.840;4.386;2022-11-21T06:56:28;13.27;;;3.33;;
39676;SDS011;27789;50.840;4.386;2022-11-21T06:58:55;15.45;;;3.63;;
39676;SDS011;27789;50.840;4.386;2022-11-21T07:01:21;6.85;;;2.90;;
39676;SDS011;27789;50.840;4.386;2022-11-21T07:03:47;9.05;;;2.83;;
39676;SDS011;27789;50.840;4.386;2022-11-21T07:06:12;10.35;;;2.90;;
39676;SDS011;27789;50.840;4.386;2022-11-21T07:08:38;12.65;;;3.15;;
39676;SDS011;27789;50.840;4.386;2022-11-21T07:11:08;7.78;;;2.88;;
39676;SDS011;27789;50.840;4.386;2022-11-21T07:13:35;11.57;;;3.78;;
39676;SDS011;27789;50.840;4.386;2022-11-21T07:16:02;13.63;;;3.05;;
39676;SDS011;27789;50.840;4.386;2022-11-21T07:18:29;11.40;;;3.00;;
39676;SDS011;27789;50.840;4.386;2022-11-21T07:20:58;18.25;;;3.25;;
39676;SDS011;27789;50.840;4.386;2022-11-21T07:23:24;19.30;;;3.47;;
39676;SDS011;27789;50.840;4.386;2022-11-21T07:25:50;15.30;;;3.35;;
39676;SDS011;27789;50.840;4.386;2022-11-21T07:28:19;15.00;;;3.55;;
39676;SDS011;27789;50.840;4.386;2022-11-21T07:30:45;17.25;;;3.63;;
39676;SDS011;27789;50.840;4.386;2022-11-21T07:33:11;7.95;;;2.90;;
39676;SDS011;27789;50.840;4.386;2022-11-21T07:35:36;15.82;;;3.50;;
39676;SDS011;27789;50.840;4.386;2022-11-21T07:38:02;13.07;;;3.55;;
39676;SDS011;27789;50.840;4.386;2022-11-21T07:40:28;12.93;;;3.35;;
39676;SDS011;27789;50.840;4.386;2022-11-21T07:43:01;9.73;;;3.50;;
39676;SDS011;27789;50.840;4.386;2022-11-21T07:45:27;9.75;;;3.35;;
39676;SDS011;27789;50.840;4.386;2022-11-21T07:47:56;16.40;;;4.45;;
39676;SDS011;27789;50.840;4.386;2022-11-21T07:50:22;22.73;;;5.95;;
39676;SDS011;27789;50.840;4.386;2022-11-21T07:52:47;13.68;;;3.92;;
39676;SDS011;27789;50.840;4.386;2022-11-21T07:55:13;18.10;;;5.45;;
39676;SDS011;27789;50.840;4.386;2022-11-21T07:57:39;19.05;;;5.15;;
39676;SDS011;27789;50.840;4.386;2022-11-21T08:00:04;20.30;;;5.50;;
39676;SDS011;27789;50.840;4.386;2022-11-21T08:02:33;26.90;;;6.75;;
39676;SDS011;27789;50.840;4.386;2022-11-21T08:05:00;18.73;;;5.28;;
39676;SDS011;27789;50.840;4.386;2022-11-21T08:07:26;18.83;;;5.38;;
39676;SDS011;27789;50.840;4.386;2022-11-21T08:09:51;14.25;;;4.97;;
39676;SDS011;27789;50.840;4.386;2022-11-21T08:12:17;19.25;;;5.65;;
39676;SDS011;27789;50.840;4.386;2022-11-21T08:14:42;26.92;;;7.40;;
39676;SDS011;27789;50.840;4.386;2022-11-21T08:17:08;18.00;;;4.80;;
39676;SDS011;27789;50.840;4.386;2022-11-21T08:19:35;16.67;;;4.45;;
39676;SDS011;27789;50.840;4.386;2022-11-21T08:22:00;17.83;;;4.97;;
39676;SDS011;27789;50.840;4.386;2022-11-21T08:24:26;16.10;;;4.65;;
39676;SDS011;27789;50.840;4.386;2022-11-21T08:26:52;17.13;;;5.65;;
39676;SDS011;27789;50.840;4.386;2022-11-21T08:29:17;18.00;;;4.82;;
39676;SDS011;27789;50.840;4.386;2022-11-21T08:31:43;11.15;;;4.43;;
39676;SDS011;27789;50.840;4.386;2022-11-21T08:34:09;20.13;;;5.03;;
39676;SDS011;27789;50.840;4.386;2022-11-21T08:36:35;18.85;;;6.28;;
39676;SDS011;27789;50.840;4.386;2022-11-21T08:39:04;17.70;;;4.38;;
39676;SDS011;27789;50.840;4.386;2022-11-21T08:41:30;14.07;;;4.43;;
39676;SDS011;27789;50.840;4.386;2022-11-21T08:44:06;18.00;;;4.60;;
39676;SDS011;27789;50.840;4.386;2022-11-21T08:46:33;8.80;;;3.90;;
39676;SDS011;27789;50.840;4.386;2022-11-21T08:49:01;12.32;;;3.45;;
39676;SDS011;27789;50.840;4.386;2022-11-21T08:51:30;17.33;;;4.43;;
39676;SDS011;27789;50.840;4.386;2022-11-21T08:53:56;11.48;;;3.95;;
39676;SDS011;27789;50.840;4.386;2022-11-21T08:56:21;22.30;;;4.50;;
39676;SDS011;27789;50.840;4.386;2022-11-21T08:58:47;17.63;;;5.20;;
39676;SDS011;27789;50.840;4.386;2022-11-21T09:01:13;13.00;;;3.92;;
39676;SDS011;27789;50.840;4.386;2022-11-21T09:03:38;19.58;;;4.18;;
39676;SDS011;27789;50.840;4.386;2022-11-21T09:06:07;15.80;;;3.70;;
39676;SDS011;27789;50.840;4.386;2022-11-21T09:08:32;11.70;;;4.32;;
39676;SDS011;27789;50.840;4.386;2022-11-21T09:11:02;11.55;;;3.88;;
39676;SDS011;27789;50.840;4.386;2022-11-21T09:13:32;15.48;;;3.88;;
39676;SDS011;27789;50.840;4.386;2022-11-21T09:15:58;15.75;;;3.38;;
39676;SDS011;27789;50.840;4.386;2022-11-21T09:18:35;21.38;;;4.15;;
39676;SDS011;27789;50.840;4.386;2022-11-21T09:21:00;14.85;;;3.90;;
39676;SDS011;27789;50.840;4.386;2022-11-21T09:23:26;14.52;;;4.18;;
39676;SDS011;27789;50.840;4.386;2022-11-21T09:25:51;9.15;;;3.42;;
39676;SDS011;27789;50.840;4.386;2022-11-21T09:28:17;12.68;;;3.20;;
39676;SDS011;27789;50.840;4.386;2022-11-21T09:30:43;11.98;;;3.88;;
39676;SDS011;27789;50.840;4.386;2022-11-21T09:33:10;11.23;;;3.60;;
39676;SDS011;27789;50.840;4.386;2022-11-21T09:35:37;10.57;;;3.35;;
39676;SDS011;27789;50.840;4.386;2022-11-21T09:38:03;9.85;;;3.70;;
39676;SDS011;27789;50.840;4.386;2022-11-21T09:40:29;10.50;;;3.80;;
39676;SDS011;27789;50.840;4.386;2022-11-21T09:45:32;10.18;;;3.40;;
39676;SDS011;27789;50.840;4.386;2022-11-21T09:48:01;13.88;;;3.75;;
39676;SDS011;27789;50.840;4.386;2022-11-21T09:53:13;15.18;;;3.70;;
39676;SDS011;27789;50.840;4.386;2022-11-21T09:56:11;10.52;;;3.40;;
39676;SDS011;27789;50.840;4.386;2022-11-21T10:01:13;13.00;;;4.55;;
39676;SDS011;27789;50.840;4.386;2022-11-21T10:03:41;10.18;;;4.72;;
39676;SDS011;27789;50.840;4.386;2022-11-21T10:11:19;10.18;;;5.20;;
39676;SDS011;27789;50.840;4.386;2022-11-21T10:14:06;22.08;;;6.57;;
39676;SDS011;27789;50.840;4.386;2022-11-21T10:16:48;11.45;;;6.60;;
39676;SDS011;27789;50.840;4.386;2022-11-21T10:24:55;17.45;;;9.30;;
39676;SDS011;27789;50.840;4.386;2022-11-21T10:30:00;18.40;;;7.70;;
39676;SDS011;27789;50.840;4.386;2022-11-21T10:32:30;19.08;;;8.18;;
39676;SDS011;27789;50.840;4.386;2022-11-21T10:35:06;15.88;;;8.70;;
39676;SDS011;27789;50.840;4.386;2022-11-21T10:37:41;16.60;;;9.38;;
39676;SDS011;27789;50.840;4.386;2022-11-21T10:40:15;16.60;;;9.10;;
39676;SDS011;27789;50.840;4.386;2022-11-21T10:42:55;17.65;;;8.85;;
39676;SDS011;27789;50.840;4.386;2022-11-21T10:45:49;23.83;;;9.45;;
39676;SDS011;27789;50.840;4.386;2022-11-21T10:48:15;13.43;;;8.80;;
39676;SDS011;27789;50.840;4.386;2022-11-21T10:53:31;15.10;;;8.93;;
39676;SDS011;27789;50.840;4.386;2022-11-21T10:56:08;21.90;;;9.32;;
39676;SDS011;27789;50.840;4.386;2022-11-21T10:58:46;16.80;;;8.68;;
39676;SDS011;27789;50.840;4.386;2022-11-21T11:06:34;18.25;;;8.30;;
39676;SDS011;27789;50.840;4.386;2022-11-21T11:09:04;21.35;;;8.50;;
39676;SDS011;27789;50.840;4.386;2022-11-21T11:11:31;15.15;;;7.97;;
39676;SDS011;27789;50.840;4.386;2022-11-21T11:13:58;23.65;;;8.05;;
39676;SDS011;27789;50.840;4.386;2022-11-21T11:29:22;14.80;;;6.63;;
39676;SDS011;27789;50.840;4.386;2022-11-21T11:37:10;14.13;;;7.63;;
39676;SDS011;27789;50.840;4.386;2022-11-21T11:39:46;20.02;;;6.90;;
39676;SDS011;27789;50.840;4.386;2022-11-21T11:48:09;14.68;;;6.35;;
39676;SDS011;27789;50.840;4.386;2022-11-21T11:53:22;18.80;;;7.35;;
39676;SDS011;27789;50.840;4.386;2022-11-21T11:55:58;16.67;;;7.47;;
39676;SDS011;27789;50.840;4.386;2022-11-21T12:01:15;24.58;;;6.20;;
39676;SDS011;27789;50.840;4.386;2022-11-21T12:03:47;15.50;;;6.15;;
39676;SDS011;27789;50.840;4.386;2022-11-21T12:08:59;25.23;;;6.80;;
39676;SDS011;27789;50.840;4.386;2022-11-21T12:17:24;22.08;;;5.97;;
39676;SDS011;27789;50.840;4.386;2022-11-21T12:20:26;13.43;;;5.10;;
39676;SDS011;27789;50.840;4.386;2022-11-21T12:22:54;19.45;;;5.97;;
39676;SDS011;27789;50.840;4.386;2022-11-21T12:25:23;16.23;;;6.38;;
39676;SDS011;27789;50.840;4.386;2022-11-21T12:27:54;17.60;;;6.13;;
39676;SDS011;27789;50.840;4.386;2022-11-21T12:30:24;11.88;;;5.47;;
39676;SDS011;27789;50.840;4.386;2022-11-21T12:32:56;12.07;;;5.90;;
39676;SDS011;27789;50.840;4.386;2022-11-21T12:35:43;19.80;;;6.18;;
39676;SDS011;27789;50.840;4.386;2022-11-21T12:52:16;11.80;;;5.13;;
39676;SDS011;27789;50.840;4.386;2022-11-21T12:54:57;14.93;;;6.23;;
39676;SDS011;27789;50.840;4.386;2022-11-21T12:57:30;14.88;;;5.72;;
39676;SDS011;27789;50.840;4.386;2022-11-21T13:00:11;14.90;;;6.55;;
39676;SDS011;27789;50.840;4.386;2022-11-21T13:02:50;14.65;;;5.80;;
39676;SDS011;27789;50.840;4.386;2022-11-21T13:07:57;16.38;;;5.68;;
39676;SDS011;27789;50.840;4.386;2022-11-21T13:12:58;16.70;;;5.45;;
39676;SDS011;27789;50.840;4.386;2022-11-21T13:15:37;16.58;;;5.80;;
39676;SDS011;27789;50.840;4.386;2022-11-21T13:20:53;22.27;;;5.90;;
39676;SDS011;27789;50.840;4.386;2022-11-21T13:31:38;14.82;;;5.03;;
39676;SDS011;27789;50.840;4.386;2022-11-21T13:34:08;12.38;;;5.05;;
39676;SDS011;27789;50.840;4.386;2022-11-21T13:36:56;10.38;;;4.90;;
39676;SDS011;27789;50.840;4.386;2022-11-21T13:39:25;8.32;;;4.32;;
39676;SDS011;27789;50.840;4.386;2022-11-21T13:41:57;10.25;;;4.72;;
39676;SDS011;27789;50.840;4.386;2022-11-21T13:53:15;11.13;;;3.50;;
39676;SDS011;27789;50.840;4.386;2022-11-21T13:55:56;8.73;;;3.53;;
39676;SDS011;27789;50.840;4.386;2022-11-21T14:19:55;9.05;;;2.72;;
39676;SDS011;27789;50.840;4.386;2022-11-21T14:22:26;7.15;;;2.42;;
39676;SDS011;27789;50.840;4.386;2022-11-21T14:24:59;11.95;;;4.68;;
39676;SDS011;27789;50.840;4.386;2022-11-21T14:27:30;13.25;;;2.80;;
39676;SDS011;27789;50.840;4.386;2022-11-21T14:29:57;13.35;;;2.90;;
39676;SDS011;27789;50.840;4.386;2022-11-21T14:32:28;17.63;;;3.13;;
39676;SDS011;27789;50.840;4.386;2022-11-21T14:37:32;14.10;;;3.55;;
39676;SDS011;27789;50.840;4.386;2022-11-21T14:39:57;8.15;;;2.33;;
39676;SDS011;27789;50.840;4.386;2022-11-21T14:42:32;8.82;;;3.92;;
39676;SDS011;27789;50.840;4.386;2022-11-21T14:45:06;15.90;;;3.20;;
39676;SDS011;27789;50.840;4.386;2022-11-21T14:47:46;7.53;;;2.33;;
39676;SDS011;27789;50.840;4.386;2022-11-21T14:52:54;12.57;;;3.00;;
39676;SDS011;27789;50.840;4.386;2022-11-21T14:55:29;13.30;;;3.25;;
39676;SDS011;27789;50.840;4.386;2022-11-21T14:57:57;10.68;;;2.70;;
39676;SDS011;27789;50.840;4.386;2022-11-21T15:00:26;17.85;;;3.15;;
39676;SDS011;27789;50.840;4.386;2022-11-21T15:02:54;15.13;;;3.45;;
39676;SDS011;27789;50.840;4.386;2022-11-21T15:05:21;14.15;;;3.17;;
39676;SDS011;27789;50.840;4.386;2022-11-21T15:07:53;10.95;;;3.40;;
39676;SDS011;27789;50.840;4.386;2022-11-21T15:10:19;10.18;;;2.78;;
39676;SDS011;27789;50.840;4.386;2022-11-21T15:15:43;12.43;;;3.08;;
39676;SDS011;27789;50.840;4.386;2022-11-21T15:18:13;13.88;;;3.22;;
39676;SDS011;27789;50.840;4.386;2022-11-21T15:20:47;10.77;;;3.58;;
39676;SDS011;27789;50.840;4.386;2022-11-21T15:25:58;9.57;;;3.33;;
39676;SDS011;27789;50.840;4.386;2022-11-21T15:28:24;7.43;;;3.53;;
39676;SDS011;27789;50.840;4.386;2022-11-21T15:38:48;8.32;;;3.03;;
39676;SDS011;27789;50.840;4.386;2022-11-21T15:46:32;13.05;;;3.40;;
39676;SDS011;27789;50.840;4.386;2022-11-21T15:48:59;9.88;;;3.22;;
39676;SDS011;27789;50.840;4.386;2022-11-21T15:54:04;11.20;;;4.00;;
39676;SDS011;27789;50.840;4.386;2022-11-21T15:56:32;19.52;;;3.67;;
39676;SDS011;27789;50.840;4.386;2022-11-21T15:58:57;11.88;;;4.03;;
39676;SDS011;27789;50.840;4.386;2022-11-21T16:01:24;11.27;;;2.90;;
39676;SDS011;27789;50.840;4.386;2022-11-21T16:03:57;15.02;;;3.22;;
39676;SDS011;27789;50.840;4.386;2022-11-21T16:06:24;9.38;;;2.90;;
39676;SDS011;27789;50.840;4.386;2022-11-21T16:08:50;12.70;;;3.33;;
39676;SDS011;27789;50.840;4.386;2022-11-21T16:11:17;11.20;;;3.97;;
39676;SDS011;27789;50.840;4.386;2022-11-21T16:14:11;9.43;;;3.47;;
39676;SDS011;27789;50.840;4.386;2022-11-21T16:16:39;13.50;;;3.70;;
39676;SDS011;27789;50.840;4.386;2022-11-21T16:19:06;9.98;;;3.60;;
39676;SDS011;27789;50.840;4.386;2022-11-21T16:21:34;15.00;;;4.35;;
39676;SDS011;27789;50.840;4.386;2022-11-21T16:24:00;8.90;;;2.75;;
39676;SDS011;27789;50.840;4.386;2022-11-21T16:26:25;11.48;;;3.60;;
39676;SDS011;27789;50.840;4.386;2022-11-21T16:28:54;15.93;;;5.10;;
39676;SDS011;27789;50.840;4.386;2022-11-21T16:31:22;10.27;;;4.38;;
39676;SDS011;27789;50.840;4.386;2022-11-21T16:33:49;13.15;;;4.97;;
39676;SDS011;27789;50.840;4.386;2022-11-21T16:36:18;18.35;;;5.88;;
39676;SDS011;27789;50.840;4.386;2022-11-21T16:38:48;16.95;;;4.72;;
39676;SDS011;27789;50.840;4.386;2022-11-21T16:41:18;16.05;;;5.28;;
39676;SDS011;27789;50.840;4.386;2022-11-21T16:43:45;15.68;;;4.88;;
39676;SDS011;27789;50.840;4.386;2022-11-21T16:46:12;23.42;;;5.72;;
39676;SDS011;27789;50.840;4.386;2022-11-21T16:48:37;14.50;;;4.93;;
39676;SDS011;27789;50.840;4.386;2022-11-21T16:51:21;15.95;;;4.60;;
39676;SDS011;27789;50.840;4.386;2022-11-21T16:53:48;12.85;;;4.80;;
39676;SDS011;27789;50.840;4.386;2022-11-21T16:56:14;15.23;;;5.45;;
39676;SDS011;27789;50.840;4.386;2022-11-21T16:58:40;14.90;;;5.13;;
39676;SDS011;27789;50.840;4.386;2022-11-21T17:01:10;14.88;;;5.15;;
39676;SDS011;27789;50.840;4.386;2022-11-21T17:03:40;13.88;;;4.57;;
39676;SDS011;27789;50.840;4.386;2022-11-21T17:06:07;15.07;;;5.57;;
39676;SDS011;27789;50.840;4.386;2022-11-21T17:08:34;16.60;;;5.20;;
39676;SDS011;27789;50.840;4.386;2022-11-21T17:13:44;18.13;;;5.30;;
39676;SDS011;27789;50.840;4.386;2022-11-21T17:16:11;13.63;;;6.22;;
39676;SDS011;27789;50.840;4.386;2022-11-21T17:18:38;19.23;;;5.80;;
39676;SDS011;27789;50.840;4.386;2022-11-21T17:21:04;22.27;;;5.65;;
39676;SDS011;27789;50.840;4.386;2022-11-21T17:23:35;13.45;;;5.38;;
39676;SDS011;27789;50.840;4.386;2022-11-21T17:26:02;17.52;;;5.93;;
39676;SDS011;27789;50.840;4.386;2022-11-21T17:28:29;15.00;;;6.47;;
39676;SDS011;27789;50.840;4.386;2022-11-21T17:30:56;18.85;;;6.03;;
39676;SDS011;27789;50.840;4.386;2022-11-21T17:33:22;21.73;;;6.65;;
39676;SDS011;27789;50.840;4.386;2022-11-21T17:35:47;20.20;;;6.20;;